createdAt,value
2022-10-24T00:02:45.890Z,18.73
2022-10-24T00:07:50.490Z,22.48
2022-10-24T00:12:56.674Z,20.80
2022-10-24T00:23:04.412Z,20.77
2022-10-24T00:28:09.895Z,19.20
2022-10-24T00:33:13.719Z,18.88
2022-10-24T00:38:17.675Z,18.40
2022-10-24T00:43:25.677Z,18.33
2022-10-24T00:48:34.955Z,18.30
2022-10-24T00:53:45.433Z,17.27
2022-10-24T00:58:53.076Z,19.17
2022-10-24T01:03:56.936Z,14.70
2022-10-24T01:09:12.140Z,20.15
2022-10-24T01:14:33.530Z,15.63
2022-10-24T01:20:00.429Z,18.38
2022-10-24T01:25:15.647Z,16.50
2022-10-24T01:30:21.931Z,15.10
2022-10-24T01:35:36.597Z,15.63
2022-10-24T01:40:55.444Z,13.73
2022-10-24T01:46:04.439Z,14.40
2022-10-24T01:51:10.199Z,18.70
2022-10-24T01:56:15.153Z,14.40
2022-10-24T02:01:25.774Z,18.05
2022-10-24T02:06:33.355Z,19.20
2022-10-24T02:11:37.381Z,16.20
2022-10-24T02:16:43.708Z,15.65
2022-10-24T02:21:56.672Z,18.30
2022-10-24T02:27:06.176Z,15.38
2022-10-24T02:32:14.945Z,13.82
2022-10-24T02:37:20.052Z,14.30
2022-10-24T02:42:25.782Z,16.92
2022-10-24T02:47:32.802Z,18.25
2022-10-24T02:52:38.846Z,16.95
2022-10-24T02:57:42.678Z,15.43
2022-10-24T03:02:48.235Z,15.43
2022-10-24T03:07:52.277Z,15.50
2022-10-24T03:12:56.368Z,14.98
2022-10-24T03:18:02.006Z,15.18
2022-10-24T03:23:05.852Z,16.80
2022-10-24T03:28:09.980Z,14.52
2022-10-24T03:33:15.256Z,15.13
2022-10-24T03:38:20.157Z,19.88
2022-10-24T03:43:24.242Z,13.95
2022-10-24T03:48:29.771Z,13.35
2022-10-24T03:53:33.672Z,14.18
2022-10-24T03:58:39.153Z,11.97
2022-10-24T04:03:44.865Z,12.38
2022-10-24T04:08:48.749Z,10.93
2022-10-24T04:13:53.510Z,11.98
2022-10-24T04:18:58.908Z,11.03
2022-10-24T04:24:03.073Z,11.45
2022-10-24T04:29:08.293Z,13.57
2022-10-24T04:34:14.036Z,10.38
2022-10-24T04:39:17.889Z,11.05
2022-10-24T04:44:22.001Z,12.20
2022-10-24T04:49:27.301Z,11.15
2022-10-24T04:54:31.322Z,10.40
2022-10-24T04:59:35.420Z,13.38
2022-10-24T05:04:40.696Z,16.85
2022-10-24T05:09:44.527Z,14.70
2022-10-24T05:14:48.360Z,13.38
2022-10-24T05:19:56.429Z,13.52
2022-10-24T05:25:01.274Z,13.00
2022-10-24T05:30:06.421Z,12.67
2022-10-24T05:35:12.135Z,14.83
2022-10-24T05:40:16.014Z,16.80
2022-10-24T05:45:20.629Z,11.85
2022-10-24T05:50:27.138Z,17.67
2022-10-24T05:55:33.744Z,21.17
2022-10-24T06:00:37.572Z,17.10
2022-10-24T06:05:42.803Z,18.20
2022-10-24T06:10:47.988Z,15.15
2022-10-24T06:15:52.207Z,18.48
2022-10-24T06:21:00.680Z,15.30
2022-10-24T06:26:11.007Z,18.65
2022-10-24T06:31:15.166Z,18.83
2022-10-24T06:36:20.830Z,15.95
2022-10-24T06:41:24.997Z,13.32
2022-10-24T06:46:28.837Z,12.65
2022-10-24T06:51:34.240Z,17.23
2022-10-24T06:56:38.191Z,13.10
2022-10-24T07:01:42.551Z,14.32
2022-10-24T07:06:48.043Z,14.63
2022-10-24T07:11:51.927Z,16.05
2022-10-24T07:16:55.789Z,16.00
2022-10-24T07:22:01.025Z,14.68
2022-10-24T07:27:05.223Z,15.57
2022-10-24T07:32:09.214Z,12.52
2022-10-24T07:37:14.535Z,12.85
2022-10-24T07:42:20.325Z,17.35
2022-10-24T07:47:24.228Z,12.13
2022-10-24T07:52:29.649Z,14.32
2022-10-24T07:57:33.622Z,11.13
2022-10-24T08:02:37.536Z,10.05
2022-10-24T08:07:46.214Z,15.43
2022-10-24T08:12:55.482Z,9.73
2022-10-24T08:17:59.486Z,11.50
2022-10-24T08:23:04.956Z,12.30
2022-10-24T08:28:09.248Z,15.07
2022-10-24T08:33:17.335Z,11.52
2022-10-24T08:38:25.112Z,10.88
2022-10-24T08:43:29.059Z,13.65
2022-10-24T08:48:41.841Z,11.40
2022-10-24T08:53:51.446Z,10.93
2022-10-24T08:58:56.535Z,12.68
2022-10-24T09:04:05.005Z,9.27
2022-10-24T09:09:20.890Z,13.50
2022-10-24T09:19:32.005Z,23.15
2022-10-24T09:24:43.580Z,10.02
2022-10-24T09:29:47.871Z,7.68
2022-10-24T09:40:14.267Z,11.13
2022-10-24T09:45:21.204Z,7.38
2022-10-24T09:50:25.909Z,7.70
2022-10-24T09:55:32.138Z,9.68
2022-10-24T10:00:38.344Z,8.15
2022-10-24T10:05:48.496Z,8.43
2022-10-24T10:11:07.583Z,7.32
2022-10-24T10:16:22.760Z,8.27
2022-10-24T10:21:26.602Z,10.40
2022-10-24T10:26:44.780Z,10.38
2022-10-24T10:31:51.052Z,11.13
2022-10-24T10:37:25.696Z,8.18
2022-10-24T10:42:37.669Z,13.73
2022-10-24T10:47:51.866Z,6.80
2022-10-24T10:53:02.763Z,7.47
2022-10-24T10:58:25.402Z,11.57
2022-10-24T11:03:38.691Z,9.27
2022-10-24T11:09:32.920Z,8.82
2022-10-24T11:14:42.354Z,7.88
2022-10-24T11:19:55.099Z,8.40
2022-10-24T11:25:02.497Z,9.23
2022-10-24T11:30:15.503Z,8.20
2022-10-24T11:35:27.887Z,9.00
2022-10-24T11:40:32.108Z,10.15
2022-10-24T11:45:45.594Z,10.68
2022-10-24T11:50:54.198Z,9.77
2022-10-24T11:56:02.657Z,8.90
2022-10-24T12:01:38.276Z,12.48
2022-10-24T12:07:15.258Z,7.22
2022-10-24T12:12:47.804Z,14.40
2022-10-24T12:18:05.903Z,12.68
2022-10-24T12:23:22.875Z,15.13
2022-10-24T12:28:27.236Z,14.38
2022-10-24T12:33:32.615Z,12.95
2022-10-24T12:39:09.967Z,19.13
2022-10-24T12:44:41.208Z,16.63
2022-10-24T12:49:48.799Z,10.32
2022-10-24T12:54:56.041Z,15.88
2022-10-24T13:00:02.264Z,11.02
2022-10-24T13:05:30.055Z,13.30
2022-10-24T13:10:48.840Z,11.77
2022-10-24T13:15:58.359Z,15.50
2022-10-24T13:21:18.371Z,11.18
2022-10-24T13:26:38.035Z,18.50
2022-10-24T13:31:47.562Z,12.48
2022-10-24T13:37:00.148Z,12.80
2022-10-24T13:42:07.816Z,14.30
2022-10-24T13:47:19.601Z,15.48
2022-10-24T13:52:30.978Z,17.80
2022-10-24T13:57:37.963Z,11.90
2022-10-24T14:02:43.953Z,16.73
2022-10-24T14:07:50.409Z,10.77
2022-10-24T14:12:57.271Z,16.10
2022-10-24T14:18:02.812Z,13.13
2022-10-24T14:23:25.306Z,15.55
2022-10-24T14:28:31.212Z,16.48
2022-10-24T14:33:44.822Z,13.07
2022-10-24T14:38:51.088Z,16.33
2022-10-24T14:43:56.234Z,16.73
2022-10-24T14:49:20.726Z,10.63
2022-10-24T14:54:31.174Z,13.75
2022-10-24T14:59:38.597Z,11.75
2022-10-24T15:04:45.896Z,15.35
2022-10-24T15:09:56.749Z,16.75
2022-10-24T15:15:21.512Z,20.75
2022-10-24T15:20:30.090Z,13.60
2022-10-24T15:25:43.648Z,20.55
2022-10-24T15:30:48.013Z,19.13
2022-10-24T15:35:52.213Z,21.38
2022-10-24T15:40:58.447Z,24.02
2022-10-24T15:46:02.145Z,23.38
2022-10-24T15:51:07.175Z,29.42
2022-10-24T15:56:12.942Z,27.25
2022-10-24T16:01:26.002Z,22.25
2022-10-24T16:06:30.233Z,23.08
2022-10-24T16:11:35.576Z,24.10
2022-10-24T16:16:39.353Z,20.42
2022-10-24T16:21:43.568Z,23.30
2022-10-24T16:26:48.885Z,21.05
2022-10-24T16:31:52.559Z,19.42
2022-10-24T16:36:56.786Z,16.58
2022-10-24T16:42:04.724Z,28.98
2022-10-24T16:47:10.085Z,16.58
2022-10-24T16:52:14.335Z,34.70
2022-10-24T16:57:19.466Z,32.05
2022-10-24T17:02:23.120Z,30.98
2022-10-24T17:07:26.966Z,24.05
2022-10-24T17:12:32.481Z,19.65
2022-10-24T17:17:36.314Z,21.35
2022-10-24T17:22:42.556Z,21.13
2022-10-24T17:27:48.234Z,25.20
2022-10-24T17:32:52.568Z,21.65
2022-10-24T17:38:09.083Z,25.60
2022-10-24T17:43:19.521Z,24.52
2022-10-24T17:48:23.685Z,27.52
2022-10-24T17:53:27.710Z,26.15
2022-10-24T17:58:33.641Z,24.20
2022-10-24T18:03:37.501Z,21.67
2022-10-24T18:08:41.827Z,33.25
2022-10-24T18:13:46.873Z,24.25
2022-10-24T18:18:50.658Z,20.80
2022-10-24T18:23:54.814Z,24.38
2022-10-24T18:29:00.008Z,29.88
2022-10-24T18:34:06.333Z,24.80
2022-10-24T18:39:13.824Z,25.88
2022-10-24T18:44:30.408Z,33.10
2022-10-24T18:49:36.030Z,42.35
2022-10-24T18:54:45.791Z,23.67
2022-10-24T18:59:51.367Z,32.25
2022-10-24T19:05:05.856Z,32.33
2022-10-24T19:10:17.141Z,22.17
2022-10-24T19:15:23.263Z,27.48
2022-10-24T19:20:27.602Z,25.27
2022-10-24T19:25:31.863Z,25.75
2022-10-24T19:30:38.113Z,20.40
2022-10-24T19:35:47.322Z,22.30
2022-10-24T19:40:55.384Z,26.50
2022-10-24T19:46:19.398Z,26.02
2022-10-24T19:51:25.335Z,28.55
2022-10-24T19:56:31.440Z,23.77
2022-10-24T20:01:38.451Z,20.42
2022-10-24T20:06:42.270Z,20.58
2022-10-24T20:11:46.026Z,22.98
2022-10-24T20:16:51.405Z,22.08
2022-10-24T20:21:57.774Z,29.85
2022-10-24T20:27:04.123Z,24.60
2022-10-24T20:32:09.218Z,24.60
2022-10-24T20:37:13.035Z,24.92
2022-10-24T20:42:17.935Z,20.65
2022-10-24T20:47:23.014Z,20.63
2022-10-24T20:52:26.916Z,30.45
2022-10-24T20:57:30.716Z,23.95
2022-10-24T21:02:36.905Z,18.50
2022-10-24T21:07:42.142Z,23.95
2022-10-24T21:12:47.707Z,22.60
2022-10-24T21:17:53.769Z,22.65
2022-10-24T21:22:59.585Z,20.00
2022-10-24T21:28:03.328Z,18.40
2022-10-24T21:33:10.741Z,20.73
2022-10-24T21:38:14.459Z,23.33
2022-10-24T21:43:18.157Z,26.25
2022-10-24T21:48:24.156Z,16.95
2022-10-24T21:53:29.385Z,21.10
2022-10-24T21:58:33.502Z,21.30
2022-10-24T22:03:38.808Z,21.13
2022-10-24T22:08:42.825Z,19.75
2022-10-24T22:13:48.285Z,21.70
2022-10-24T22:18:53.872Z,21.45
2022-10-24T22:23:58.389Z,19.33
2022-10-24T22:29:02.147Z,17.52
2022-10-24T22:34:07.724Z,16.27
2022-10-24T22:39:15.824Z,21.80
2022-10-24T22:44:21.576Z,16.95
2022-10-24T22:49:36.652Z,17.98
2022-10-24T22:54:41.049Z,20.37
2022-10-24T22:59:45.301Z,16.48
2022-10-24T23:04:59.346Z,16.35
2022-10-24T23:10:03.096Z,14.63
2022-10-24T23:15:08.234Z,15.10
2022-10-24T23:20:22.968Z,19.05
2022-10-24T23:25:27.456Z,16.83
2022-10-24T23:30:32.173Z,16.52
2022-10-24T23:35:39.742Z,16.00
2022-10-24T23:40:44.468Z,28.90
2022-10-24T23:45:56.671Z,21.42
2022-10-24T23:51:09.055Z,38.40
2022-10-24T23:56:13.570Z,45.35
